sensor_id;sensor_type;location;lat;lon;timestamp;P1;durP1;ratioP1;P2;durP2;ratioP2
18752;SDS011;9505;50.882;5.350;2023-05-23T00:01:29;84.90;;;26.42;;
18752;SDS011;9505;50.882;5.350;2023-05-23T00:04:01;83.40;;;26.13;;
18752;SDS011;9505;50.882;5.350;2023-05-23T00:06:27;92.65;;;27.58;;
18752;SDS011;9505;50.882;5.350;2023-05-23T00:08:52;82.57;;;25.55;;
18752;SDS011;9505;50.882;5.350;2023-05-23T00:11:18;83.43;;;27.23;;
18752;SDS011;9505;50.882;5.350;2023-05-23T00:13:45;75.38;;;26.33;;
18752;SDS011;9505;50.882;5.350;2023-05-23T00:16:10;86.07;;;26.23;;
18752;SDS011;9505;50.882;5.350;2023-05-23T00:18:36;87.88;;;28.25;;
18752;SDS011;9505;50.882;5.350;2023-05-23T00:21:04;93.40;;;28.40;;
18752;SDS011;9505;50.882;5.350;2023-05-23T00:23:29;77.72;;;27.85;;
18752;SDS011;9505;50.882;5.350;2023-05-23T00:25:57;88.07;;;30.40;;
18752;SDS011;9505;50.882;5.350;2023-05-23T00:28:24;91.25;;;29.85;;
18752;SDS011;9505;50.882;5.350;2023-05-23T00:30:50;96.07;;;28.15;;
18752;SDS011;9505;50.882;5.350;2023-05-23T00:33:16;100.25;;;30.77;;
18752;SDS011;9505;50.882;5.350;2023-05-23T00:35:45;85.90;;;30.05;;
18752;SDS011;9505;50.882;5.350;2023-05-23T00:38:12;109.07;;;32.42;;
18752;SDS011;9505;50.882;5.350;2023-05-23T00:40:38;95.97;;;32.40;;
18752;SDS011;9505;50.882;5.350;2023-05-23T00:43:04;105.15;;;34.25;;
18752;SDS011;9505;50.882;5.350;2023-05-23T00:45:30;97.90;;;34.63;;
18752;SDS011;9505;50.882;5.350;2023-05-23T00:47:56;101.38;;;33.55;;
18752;SDS011;9505;50.882;5.350;2023-05-23T00:50:24;98.72;;;34.50;;
18752;SDS011;9505;50.882;5.350;2023-05-23T00:52:53;107.38;;;36.28;;
18752;SDS011;9505;50.882;5.350;2023-05-23T00:55:19;118.68;;;37.08;;
18752;SDS011;9505;50.882;5.350;2023-05-23T00:57:45;118.45;;;36.80;;
18752;SDS011;9505;50.882;5.350;2023-05-23T01:00:11;124.05;;;38.45;;
18752;SDS011;9505;50.882;5.350;2023-05-23T01:02:38;120.28;;;39.90;;
18752;SDS011;9505;50.882;5.350;2023-05-23T01:05:08;120.97;;;40.92;;
18752;SDS011;9505;50.882;5.350;2023-05-23T01:07:35;155.32;;;43.83;;
18752;SDS011;9505;50.882;5.350;2023-05-23T01:10:01;124.63;;;42.42;;
18752;SDS011;9505;50.882;5.350;2023-05-23T01:18:32;134.60;;;44.47;;
18752;SDS011;9505;50.882;5.350;2023-05-23T01:21:06;133.70;;;44.22;;
18752;SDS011;9505;50.882;5.350;2023-05-23T01:29:03;107.97;;;32.35;;
18752;SDS011;9505;50.882;5.350;2023-05-23T01:31:35;97.13;;;28.98;;
18752;SDS011;9505;50.882;5.350;2023-05-23T01:34:05;95.55;;;30.08;;
18752;SDS011;9505;50.882;5.350;2023-05-23T01:36:32;87.13;;;30.67;;
18752;SDS011;9505;50.882;5.350;2023-05-23T01:39:00;96.65;;;31.48;;
18752;SDS011;9505;50.882;5.350;2023-05-23T01:41:26;92.00;;;31.42;;
18752;SDS011;9505;50.882;5.350;2023-05-23T01:43:52;107.18;;;35.17;;
18752;SDS011;9505;50.882;5.350;2023-05-23T01:46:19;98.43;;;33.75;;
18752;SDS011;9505;50.882;5.350;2023-05-23T01:48:46;103.57;;;32.70;;
18752;SDS011;9505;50.882;5.350;2023-05-23T01:51:13;106.90;;;32.22;;
18752;SDS011;9505;50.882;5.350;2023-05-23T01:53:39;94.20;;;31.33;;
18752;SDS011;9505;50.882;5.350;2023-05-23T01:56:05;84.50;;;28.55;;
18752;SDS011;9505;50.882;5.350;2023-05-23T01:58:32;85.97;;;28.25;;
18752;SDS011;9505;50.882;5.350;2023-05-23T02:00:58;83.90;;;27.45;;
18752;SDS011;9505;50.882;5.350;2023-05-23T02:03:23;79.90;;;26.25;;
18752;SDS011;9505;50.882;5.350;2023-05-23T02:05:49;66.25;;;23.73;;
18752;SDS011;9505;50.882;5.350;2023-05-23T02:08:15;84.22;;;25.27;;
18752;SDS011;9505;50.882;5.350;2023-05-23T02:10:41;85.57;;;26.25;;
18752;SDS011;9505;50.882;5.350;2023-05-23T02:13:06;80.22;;;24.67;;
18752;SDS011;9505;50.882;5.350;2023-05-23T02:15:32;88.35;;;26.92;;
18752;SDS011;9505;50.882;5.350;2023-05-23T02:17:58;77.60;;;23.85;;
18752;SDS011;9505;50.882;5.350;2023-05-23T02:20:23;82.75;;;24.88;;
18752;SDS011;9505;50.882;5.350;2023-05-23T02:22:49;74.97;;;24.80;;
18752;SDS011;9505;50.882;5.350;2023-05-23T02:25:15;86.97;;;26.25;;
18752;SDS011;9505;50.882;5.350;2023-05-23T02:27:41;80.85;;;25.80;;
18752;SDS011;9505;50.882;5.350;2023-05-23T02:30:07;76.70;;;25.95;;
18752;SDS011;9505;50.882;5.350;2023-05-23T02:32:33;77.72;;;25.98;;
18752;SDS011;9505;50.882;5.350;2023-05-23T02:34:59;77.10;;;25.25;;
18752;SDS011;9505;50.882;5.350;2023-05-23T02:37:24;79.13;;;25.88;;
18752;SDS011;9505;50.882;5.350;2023-05-23T02:39:50;75.93;;;24.52;;
18752;SDS011;9505;50.882;5.350;2023-05-23T02:42:15;70.70;;;24.23;;
18752;SDS011;9505;50.882;5.350;2023-05-23T02:44:41;76.68;;;22.73;;
18752;SDS011;9505;50.882;5.350;2023-05-23T02:47:06;63.05;;;17.90;;
18752;SDS011;9505;50.882;5.350;2023-05-23T02:49:32;66.70;;;17.55;;
18752;SDS011;9505;50.882;5.350;2023-05-23T02:51:58;58.33;;;16.05;;
18752;SDS011;9505;50.882;5.350;2023-05-23T02:54:23;59.58;;;14.70;;
18752;SDS011;9505;50.882;5.350;2023-05-23T02:56:49;55.33;;;13.27;;
18752;SDS011;9505;50.882;5.350;2023-05-23T02:59:16;59.50;;;13.77;;
18752;SDS011;9505;50.882;5.350;2023-05-23T03:01:41;47.90;;;13.32;;
18752;SDS011;9505;50.882;5.350;2023-05-23T03:04:07;56.50;;;14.07;;
18752;SDS011;9505;50.882;5.350;2023-05-23T03:06:33;51.95;;;13.02;;
18752;SDS011;9505;50.882;5.350;2023-05-23T03:09:00;47.85;;;12.23;;
18752;SDS011;9505;50.882;5.350;2023-05-23T03:11:26;59.72;;;13.38;;
18752;SDS011;9505;50.882;5.350;2023-05-23T03:13:53;55.25;;;12.70;;
18752;SDS011;9505;50.882;5.350;2023-05-23T03:16:20;59.92;;;13.48;;
18752;SDS011;9505;50.882;5.350;2023-05-23T03:18:47;48.08;;;12.40;;
18752;SDS011;9505;50.882;5.350;2023-05-23T03:21:13;50.67;;;12.25;;
18752;SDS011;9505;50.882;5.350;2023-05-23T03:23:38;50.17;;;12.63;;
18752;SDS011;9505;50.882;5.350;2023-05-23T03:26:04;64.50;;;13.68;;
18752;SDS011;9505;50.882;5.350;2023-05-23T03:28:30;62.33;;;13.38;;
18752;SDS011;9505;50.882;5.350;2023-05-23T03:30:56;53.20;;;12.90;;
18752;SDS011;9505;50.882;5.350;2023-05-23T03:33:22;52.97;;;12.38;;
18752;SDS011;9505;50.882;5.350;2023-05-23T03:35:48;58.58;;;13.68;;
18752;SDS011;9505;50.882;5.350;2023-05-23T03:38:15;51.35;;;12.52;;
18752;SDS011;9505;50.882;5.350;2023-05-23T03:40:40;60.58;;;13.30;;
18752;SDS011;9505;50.882;5.350;2023-05-23T03:43:07;66.70;;;14.45;;
18752;SDS011;9505;50.882;5.350;2023-05-23T03:45:33;57.10;;;12.63;;
18752;SDS011;9505;50.882;5.350;2023-05-23T03:47:59;61.83;;;13.90;;
18752;SDS011;9505;50.882;5.350;2023-05-23T03:50:25;70.95;;;14.50;;
18752;SDS011;9505;50.882;5.350;2023-05-23T03:52:51;54.33;;;13.27;;
18752;SDS011;9505;50.882;5.350;2023-05-23T03:55:19;59.65;;;12.70;;
18752;SDS011;9505;50.882;5.350;2023-05-23T03:57:47;62.63;;;13.63;;
18752;SDS011;9505;50.882;5.350;2023-05-23T04:00:13;65.63;;;13.48;;
18752;SDS011;9505;50.882;5.350;2023-05-23T04:02:39;51.80;;;13.43;;
18752;SDS011;9505;50.882;5.350;2023-05-23T04:05:05;61.03;;;13.38;;
18752;SDS011;9505;50.882;5.350;2023-05-23T04:07:31;59.63;;;14.13;;
18752;SDS011;9505;50.882;5.350;2023-05-23T04:10:00;53.92;;;13.90;;
18752;SDS011;9505;50.882;5.350;2023-05-23T04:12:27;56.10;;;13.70;;
18752;SDS011;9505;50.882;5.350;2023-05-23T04:14:55;55.47;;;13.48;;
18752;SDS011;9505;50.882;5.350;2023-05-23T04:17:21;66.45;;;14.27;;
18752;SDS011;9505;50.882;5.350;2023-05-23T04:19:48;63.35;;;15.07;;
18752;SDS011;9505;50.882;5.350;2023-05-23T04:22:14;63.55;;;14.65;;
18752;SDS011;9505;50.882;5.350;2023-05-23T04:24:40;66.55;;;15.55;;
18752;SDS011;9505;50.882;5.350;2023-05-23T04:27:06;50.17;;;13.73;;
18752;SDS011;9505;50.882;5.350;2023-05-23T04:29:33;51.08;;;14.18;;
18752;SDS011;9505;50.882;5.350;2023-05-23T04:32:00;61.13;;;15.02;;
18752;SDS011;9505;50.882;5.350;2023-05-23T04:34:26;56.92;;;14.73;;
18752;SDS011;9505;50.882;5.350;2023-05-23T04:36:51;65.43;;;15.48;;
18752;SDS011;9505;50.882;5.350;2023-05-23T04:39:18;60.53;;;14.88;;
18752;SDS011;9505;50.882;5.350;2023-05-23T04:41:44;59.80;;;14.25;;
18752;SDS011;9505;50.882;5.350;2023-05-23T04:44:10;55.28;;;14.20;;
18752;SDS011;9505;50.882;5.350;2023-05-23T04:46:36;53.88;;;13.65;;
18752;SDS011;9505;50.882;5.350;2023-05-23T04:49:06;50.92;;;12.30;;
18752;SDS011;9505;50.882;5.350;2023-05-23T04:51:32;59.75;;;14.27;;
18752;SDS011;9505;50.882;5.350;2023-05-23T04:53:59;58.15;;;12.98;;
18752;SDS011;9505;50.882;5.350;2023-05-23T04:56:25;53.83;;;12.68;;
18752;SDS011;9505;50.882;5.350;2023-05-23T04:58:52;53.50;;;12.43;;
18752;SDS011;9505;50.882;5.350;2023-05-23T05:01:18;44.63;;;11.20;;
18752;SDS011;9505;50.882;5.350;2023-05-23T05:03:44;51.17;;;12.27;;
18752;SDS011;9505;50.882;5.350;2023-05-23T05:06:10;49.22;;;11.82;;
18752;SDS011;9505;50.882;5.350;2023-05-23T05:08:35;47.70;;;10.95;;
18752;SDS011;9505;50.882;5.350;2023-05-23T05:11:01;51.35;;;11.98;;
18752;SDS011;9505;50.882;5.350;2023-05-23T05:13:27;54.05;;;11.50;;
18752;SDS011;9505;50.882;5.350;2023-05-23T05:15:52;39.13;;;9.88;;
18752;SDS011;9505;50.882;5.350;2023-05-23T05:18:18;50.80;;;12.25;;
18752;SDS011;9505;50.882;5.350;2023-05-23T05:20:44;51.45;;;12.65;;
18752;SDS011;9505;50.882;5.350;2023-05-23T05:23:10;52.30;;;13.60;;
18752;SDS011;9505;50.882;5.350;2023-05-23T05:25:36;51.97;;;13.93;;
18752;SDS011;9505;50.882;5.350;2023-05-23T05:28:02;45.47;;;12.32;;
18752;SDS011;9505;50.882;5.350;2023-05-23T05:30:31;64.05;;;15.32;;
18752;SDS011;9505;50.882;5.350;2023-05-23T05:32:59;59.13;;;14.82;;
18752;SDS011;9505;50.882;5.350;2023-05-23T05:35:26;51.70;;;13.52;;
18752;SDS011;9505;50.882;5.350;2023-05-23T05:37:52;55.25;;;13.93;;
18752;SDS011;9505;50.882;5.350;2023-05-23T05:40:17;51.38;;;13.35;;
18752;SDS011;9505;50.882;5.350;2023-05-23T05:42:43;51.60;;;13.50;;
18752;SDS011;9505;50.882;5.350;2023-05-23T05:45:09;51.88;;;13.65;;
18752;SDS011;9505;50.882;5.350;2023-05-23T05:47:35;60.20;;;13.43;;
18752;SDS011;9505;50.882;5.350;2023-05-23T05:50:03;55.63;;;14.07;;
18752;SDS011;9505;50.882;5.350;2023-05-23T05:52:30;74.85;;;14.52;;
18752;SDS011;9505;50.882;5.350;2023-05-23T05:54:56;55.47;;;13.02;;
18752;SDS011;9505;50.882;5.350;2023-05-23T05:57:22;53.97;;;13.60;;
18752;SDS011;9505;50.882;5.350;2023-05-23T05:59:47;49.78;;;13.30;;
18752;SDS011;9505;50.882;5.350;2023-05-23T06:02:13;59.35;;;13.73;;
18752;SDS011;9505;50.882;5.350;2023-05-23T06:04:38;55.25;;;14.07;;
18752;SDS011;9505;50.882;5.350;2023-05-23T06:07:04;52.13;;;12.15;;
18752;SDS011;9505;50.882;5.350;2023-05-23T06:09:30;54.95;;;12.70;;
18752;SDS011;9505;50.882;5.350;2023-05-23T06:11:55;58.53;;;13.45;;
18752;SDS011;9505;50.882;5.350;2023-05-23T06:14:21;116.53;;;19.02;;
18752;SDS011;9505;50.882;5.350;2023-05-23T06:16:46;54.47;;;12.90;;
18752;SDS011;9505;50.882;5.350;2023-05-23T06:19:12;56.72;;;12.57;;
18752;SDS011;9505;50.882;5.350;2023-05-23T06:21:38;58.00;;;13.00;;
18752;SDS011;9505;50.882;5.350;2023-05-23T06:24:03;46.63;;;12.23;;
18752;SDS011;9505;50.882;5.350;2023-05-23T06:26:29;56.70;;;13.50;;
18752;SDS011;9505;50.882;5.350;2023-05-23T06:28:55;54.60;;;13.35;;
18752;SDS011;9505;50.882;5.350;2023-05-23T06:31:20;62.60;;;14.30;;
18752;SDS011;9505;50.882;5.350;2023-05-23T06:33:46;53.53;;;14.00;;
18752;SDS011;9505;50.882;5.350;2023-05-23T06:36:11;53.83;;;13.43;;
18752;SDS011;9505;50.882;5.350;2023-05-23T06:38:37;56.15;;;13.25;;
18752;SDS011;9505;50.882;5.350;2023-05-23T06:41:03;49.92;;;12.13;;
18752;SDS011;9505;50.882;5.350;2023-05-23T06:43:30;51.92;;;13.63;;
18752;SDS011;9505;50.882;5.350;2023-05-23T06:45:56;54.00;;;14.18;;
18752;SDS011;9505;50.882;5.350;2023-05-23T06:48:22;65.45;;;15.48;;
18752;SDS011;9505;50.882;5.350;2023-05-23T06:50:47;50.40;;;14.70;;
18752;SDS011;9505;50.882;5.350;2023-05-23T06:53:13;74.80;;;15.75;;
18752;SDS011;9505;50.882;5.350;2023-05-23T06:55:40;64.07;;;14.85;;
18752;SDS011;9505;50.882;5.350;2023-05-23T06:58:06;64.00;;;14.63;;
18752;SDS011;9505;50.882;5.350;2023-05-23T07:00:31;67.22;;;15.32;;
18752;SDS011;9505;50.882;5.350;2023-05-23T07:02:57;68.97;;;16.38;;
18752;SDS011;9505;50.882;5.350;2023-05-23T07:05:25;74.70;;;16.15;;
18752;SDS011;9505;50.882;5.350;2023-05-23T07:07:53;81.25;;;17.00;;
18752;SDS011;9505;50.882;5.350;2023-05-23T07:10:19;67.13;;;15.88;;
18752;SDS011;9505;50.882;5.350;2023-05-23T07:12:45;57.17;;;14.90;;
18752;SDS011;9505;50.882;5.350;2023-05-23T07:15:11;69.78;;;15.88;;
18752;SDS011;9505;50.882;5.350;2023-05-23T07:17:38;75.82;;;15.63;;
18752;SDS011;9505;50.882;5.350;2023-05-23T07:20:05;67.82;;;15.40;;
18752;SDS011;9505;50.882;5.350;2023-05-23T07:22:32;67.93;;;15.43;;
18752;SDS011;9505;50.882;5.350;2023-05-23T07:24:57;54.80;;;13.80;;
18752;SDS011;9505;50.882;5.350;2023-05-23T07:27:23;67.35;;;15.13;;
18752;SDS011;9505;50.882;5.350;2023-05-23T07:29:50;60.65;;;12.45;;
18752;SDS011;9505;50.882;5.350;2023-05-23T07:32:15;68.88;;;13.70;;
18752;SDS011;9505;50.882;5.350;2023-05-23T07:34:41;70.50;;;13.65;;
18752;SDS011;9505;50.882;5.350;2023-05-23T07:37:07;67.10;;;14.20;;
18752;SDS011;9505;50.882;5.350;2023-05-23T07:39:32;57.75;;;13.32;;
18752;SDS011;9505;50.882;5.350;2023-05-23T07:41:58;72.53;;;14.35;;
18752;SDS011;9505;50.882;5.350;2023-05-23T07:44:24;100.70;;;17.38;;
18752;SDS011;9505;50.882;5.350;2023-05-23T07:46:50;99.05;;;16.98;;
18752;SDS011;9505;50.882;5.350;2023-05-23T07:49:16;66.53;;;14.65;;
18752;SDS011;9505;50.882;5.350;2023-05-23T07:51:41;60.92;;;12.90;;
18752;SDS011;9505;50.882;5.350;2023-05-23T07:54:07;94.47;;;15.18;;
18752;SDS011;9505;50.882;5.350;2023-05-23T07:56:33;92.03;;;15.32;;
18752;SDS011;9505;50.882;5.350;2023-05-23T07:58:58;72.68;;;12.45;;
18752;SDS011;9505;50.882;5.350;2023-05-23T08:01:24;68.40;;;11.73;;
18752;SDS011;9505;50.882;5.350;2023-05-23T08:03:50;90.70;;;13.20;;
18752;SDS011;9505;50.882;5.350;2023-05-23T08:06:16;79.15;;;12.45;;
18752;SDS011;9505;50.882;5.350;2023-05-23T08:08:41;60.90;;;10.10;;
18752;SDS011;9505;50.882;5.350;2023-05-23T08:11:08;63.00;;;10.00;;
18752;SDS011;9505;50.882;5.350;2023-05-23T08:13:33;86.00;;;12.65;;
18752;SDS011;9505;50.882;5.350;2023-05-23T08:15:59;76.55;;;11.68;;
18752;SDS011;9505;50.882;5.350;2023-05-23T08:18:25;59.78;;;10.13;;
18752;SDS011;9505;50.882;5.350;2023-05-23T08:20:51;53.95;;;9.15;;
18752;SDS011;9505;50.882;5.350;2023-05-23T08:23:17;49.67;;;9.30;;
18752;SDS011;9505;50.882;5.350;2023-05-23T08:25:43;46.95;;;8.55;;
18752;SDS011;9505;50.882;5.350;2023-05-23T08:28:09;46.50;;;8.40;;
18752;SDS011;9505;50.882;5.350;2023-05-23T08:30:35;46.03;;;8.60;;
18752;SDS011;9505;50.882;5.350;2023-05-23T08:33:00;49.72;;;8.85;;
18752;SDS011;9505;50.882;5.350;2023-05-23T08:35:28;45.72;;;8.68;;
18752;SDS011;9505;50.882;5.350;2023-05-23T08:37:58;49.10;;;9.32;;
18752;SDS011;9505;50.882;5.350;2023-05-23T08:40:25;48.80;;;9.68;;
18752;SDS011;9505;50.882;5.350;2023-05-23T08:42:53;48.65;;;9.13;;
18752;SDS011;9505;50.882;5.350;2023-05-23T08:45:19;55.97;;;8.82;;
18752;SDS011;9505;50.882;5.350;2023-05-23T08:47:45;52.47;;;10.25;;
18752;SDS011;9505;50.882;5.350;2023-05-23T08:50:12;59.83;;;9.80;;
18752;SDS011;9505;50.882;5.350;2023-05-23T08:52:42;44.88;;;8.13;;
18752;SDS011;9505;50.882;5.350;2023-05-23T08:55:20;52.80;;;8.75;;
18752;SDS011;9505;50.882;5.350;2023-05-23T08:57:54;51.65;;;8.93;;
18752;SDS011;9505;50.882;5.350;2023-05-23T09:00:26;51.50;;;8.75;;
18752;SDS011;9505;50.882;5.350;2023-05-23T09:02:52;52.97;;;8.77;;
18752;SDS011;9505;50.882;5.350;2023-05-23T09:05:18;43.40;;;7.75;;
18752;SDS011;9505;50.882;5.350;2023-05-23T09:07:45;58.78;;;9.10;;
18752;SDS011;9505;50.882;5.350;2023-05-23T09:10:15;52.15;;;8.85;;
18752;SDS011;9505;50.882;5.350;2023-05-23T09:12:44;45.67;;;7.97;;
18752;SDS011;9505;50.882;5.350;2023-05-23T09:15:10;57.75;;;9.82;;
18752;SDS011;9505;50.882;5.350;2023-05-23T09:17:36;52.35;;;9.23;;
18752;SDS011;9505;50.882;5.350;2023-05-23T09:20:03;51.70;;;8.93;;
18752;SDS011;9505;50.882;5.350;2023-05-23T09:22:36;54.15;;;8.90;;
18752;SDS011;9505;50.882;5.350;2023-05-23T09:25:02;59.53;;;9.57;;
18752;SDS011;9505;50.882;5.350;2023-05-23T09:27:29;48.05;;;7.63;;
18752;SDS011;9505;50.882;5.350;2023-05-23T09:29:55;49.97;;;8.73;;
18752;SDS011;9505;50.882;5.350;2023-05-23T09:32:21;54.60;;;7.95;;
18752;SDS011;9505;50.882;5.350;2023-05-23T09:37:32;45.97;;;7.07;;
18752;SDS011;9505;50.882;5.350;2023-05-23T09:40:00;35.97;;;6.57;;
18752;SDS011;9505;50.882;5.350;2023-05-23T09:42:31;46.80;;;7.65;;
18752;SDS011;9505;50.882;5.350;2023-05-23T09:45:00;48.60;;;7.43;;
18752;SDS011;9505;50.882;5.350;2023-05-23T09:47:26;48.53;;;8.05;;
18752;SDS011;9505;50.882;5.350;2023-05-23T09:49:52;39.97;;;6.57;;
18752;SDS011;9505;50.882;5.350;2023-05-23T09:52:18;42.72;;;6.78;;
18752;SDS011;9505;50.882;5.350;2023-05-23T09:54:44;42.10;;;7.20;;
18752;SDS011;9505;50.882;5.350;2023-05-23T09:57:11;41.38;;;7.25;;
18752;SDS011;9505;50.882;5.350;2023-05-23T09:59:40;39.30;;;6.65;;
18752;SDS011;9505;50.882;5.350;2023-05-23T10:02:12;58.03;;;8.98;;
18752;SDS011;9505;50.882;5.350;2023-05-23T10:04:40;55.28;;;7.88;;
18752;SDS011;9505;50.882;5.350;2023-05-23T10:07:13;59.35;;;8.38;;
18752;SDS011;9505;50.882;5.350;2023-05-23T10:09:47;53.55;;;8.02;;
18752;SDS011;9505;50.882;5.350;2023-05-23T10:14:56;53.53;;;8.48;;
18752;SDS011;9505;50.882;5.350;2023-05-23T10:20:07;42.90;;;7.65;;
18752;SDS011;9505;50.882;5.350;2023-05-23T10:22:36;40.05;;;6.85;;
18752;SDS011;9505;50.882;5.350;2023-05-23T10:25:06;38.38;;;7.32;;
18752;SDS011;9505;50.882;5.350;2023-05-23T10:27:34;37.42;;;7.25;;
18752;SDS011;9505;50.882;5.350;2023-05-23T10:30:01;58.50;;;8.98;;
18752;SDS011;9505;50.882;5.350;2023-05-23T10:32:27;42.20;;;7.43;;
18752;SDS011;9505;50.882;5.350;2023-05-23T10:43:17;30.60;;;5.32;;
18752;SDS011;9505;50.882;5.350;2023-05-23T10:46:14;26.05;;;5.00;;
18752;SDS011;9505;50.882;5.350;2023-05-23T10:48:40;23.65;;;5.47;;
18752;SDS011;9505;50.882;5.350;2023-05-23T10:51:07;28.70;;;4.53;;
18752;SDS011;9505;50.882;5.350;2023-05-23T10:53:38;28.17;;;5.00;;
18752;SDS011;9505;50.882;5.350;2023-05-23T10:56:05;38.40;;;4.82;;
18752;SDS011;9505;50.882;5.350;2023-05-23T10:58:32;17.98;;;3.78;;
18752;SDS011;9505;50.882;5.350;2023-05-23T11:00:59;26.85;;;3.97;;
18752;SDS011;9505;50.882;5.350;2023-05-23T11:03:36;18.10;;;3.78;;
18752;SDS011;9505;50.882;5.350;2023-05-23T11:09:03;32.55;;;5.72;;
18752;SDS011;9505;50.882;5.350;2023-05-23T11:19:36;29.55;;;5.38;;
18752;SDS011;9505;50.882;5.350;2023-05-23T11:22:03;37.17;;;5.88;;
18752;SDS011;9505;50.882;5.350;2023-05-23T11:24:48;29.92;;;5.20;;
18752;SDS011;9505;50.882;5.350;2023-05-23T11:27:25;35.58;;;6.20;;
18752;SDS011;9505;50.882;5.350;2023-05-23T11:32:23;41.05;;;6.28;;
18752;SDS011;9505;50.882;5.350;2023-05-23T11:34:53;40.03;;;6.43;;
18752;SDS011;9505;50.882;5.350;2023-05-23T11:37:18;29.92;;;5.35;;
18752;SDS011;9505;50.882;5.350;2023-05-23T11:39:45;31.33;;;5.43;;
18752;SDS011;9505;50.882;5.350;2023-05-23T11:42:10;42.00;;;6.68;;
18752;SDS011;9505;50.882;5.350;2023-05-23T11:44:36;31.10;;;5.43;;
18752;SDS011;9505;50.882;5.350;2023-05-23T11:47:02;29.77;;;4.72;;
18752;SDS011;9505;50.882;5.350;2023-05-23T11:49:30;33.83;;;5.35;;
18752;SDS011;9505;50.882;5.350;2023-05-23T11:52:03;37.08;;;5.68;;
18752;SDS011;9505;50.882;5.350;2023-05-23T11:54:30;23.75;;;4.30;;
18752;SDS011;9505;50.882;5.350;2023-05-23T11:56:56;28.40;;;4.47;;
18752;SDS011;9505;50.882;5.350;2023-05-23T11:59:25;27.90;;;5.07;;
18752;SDS011;9505;50.882;5.350;2023-05-23T12:01:52;29.80;;;4.93;;
18752;SDS011;9505;50.882;5.350;2023-05-23T12:04:18;31.02;;;4.28;;
18752;SDS011;9505;50.882;5.350;2023-05-23T12:06:48;25.02;;;4.03;;
18752;SDS011;9505;50.882;5.350;2023-05-23T12:09:14;23.50;;;3.75;;
18752;SDS011;9505;50.882;5.350;2023-05-23T12:11:40;26.33;;;3.88;;
18752;SDS011;9505;50.882;5.350;2023-05-23T12:14:07;35.40;;;4.80;;
18752;SDS011;9505;50.882;5.350;2023-05-23T12:16:34;32.42;;;4.70;;
18752;SDS011;9505;50.882;5.350;2023-05-23T12:19:00;20.52;;;3.38;;
18752;SDS011;9505;50.882;5.350;2023-05-23T12:21:43;21.10;;;3.85;;
18752;SDS011;9505;50.882;5.350;2023-05-23T12:24:12;40.97;;;5.75;;
18752;SDS011;9505;50.882;5.350;2023-05-23T12:26:48;33.88;;;4.90;;
18752;SDS011;9505;50.882;5.350;2023-05-23T12:29:18;41.30;;;5.47;;
18752;SDS011;9505;50.882;5.350;2023-05-23T12:31:49;39.92;;;5.38;;
18752;SDS011;9505;50.882;5.350;2023-05-23T12:34:15;39.35;;;5.25;;
18752;SDS011;9505;50.882;5.350;2023-05-23T12:36:41;41.13;;;5.25;;
18752;SDS011;9505;50.882;5.350;2023-05-23T12:39:08;33.90;;;5.03;;
18752;SDS011;9505;50.882;5.350;2023-05-23T12:41:34;36.88;;;5.18;;
18752;SDS011;9505;50.882;5.350;2023-05-23T12:44:00;30.40;;;4.60;;
18752;SDS011;9505;50.882;5.350;2023-05-23T12:46:26;21.50;;;3.28;;
18752;SDS011;9505;50.882;5.350;2023-05-23T12:48:52;22.92;;;3.97;;
18752;SDS011;9505;50.882;5.350;2023-05-23T12:51:19;35.42;;;4.75;;
18752;SDS011;9505;50.882;5.350;2023-05-23T12:53:45;27.52;;;3.75;;
18752;SDS011;9505;50.882;5.350;2023-05-23T12:56:11;40.15;;;5.28;;
18752;SDS011;9505;50.882;5.350;2023-05-23T12:58:37;29.52;;;4.30;;
18752;SDS011;9505;50.882;5.350;2023-05-23T13:01:02;23.90;;;3.83;;
18752;SDS011;9505;50.882;5.350;2023-05-23T13:03:29;31.80;;;4.35;;
18752;SDS011;9505;50.882;5.350;2023-05-23T13:05:56;22.30;;;3.50;;
18752;SDS011;9505;50.882;5.350;2023-05-23T13:08:22;17.73;;;3.25;;
18752;SDS011;9505;50.882;5.350;2023-05-23T13:10:48;32.35;;;4.38;;
18752;SDS011;9505;50.882;5.350;2023-05-23T13:13:14;41.85;;;5.35;;
18752;SDS011;9505;50.882;5.350;2023-05-23T13:15:40;36.85;;;5.78;;
18752;SDS011;9505;50.882;5.350;2023-05-23T13:18:06;29.27;;;4.25;;
18752;SDS011;9505;50.882;5.350;2023-05-23T13:20:31;24.67;;;4.00;;
18752;SDS011;9505;50.882;5.350;2023-05-23T13:22:58;26.35;;;3.42;;
18752;SDS011;9505;50.882;5.350;2023-05-23T13:25:27;43.78;;;5.13;;
18752;SDS011;9505;50.882;5.350;2023-05-23T13:27:52;29.55;;;4.28;;
18752;SDS011;9505;50.882;5.350;2023-05-23T13:30:19;33.67;;;4.15;;
18752;SDS011;9505;50.882;5.350;2023-05-23T13:32:45;24.58;;;3.50;;
18752;SDS011;9505;50.882;5.350;2023-05-23T13:35:11;25.15;;;3.63;;
18752;SDS011;9505;50.882;5.350;2023-05-23T13:37:36;30.35;;;4.18;;
18752;SDS011;9505;50.882;5.350;2023-05-23T13:40:02;36.17;;;4.50;;
18752;SDS011;9505;50.882;5.350;2023-05-23T13:42:29;27.42;;;4.15;;
18752;SDS011;9505;50.882;5.350;2023-05-23T13:44:55;28.42;;;3.70;;
18752;SDS011;9505;50.882;5.350;2023-05-23T13:47:21;21.55;;;3.25;;
18752;SDS011;9505;50.882;5.350;2023-05-23T13:49:46;16.13;;;3.05;;
18752;SDS011;9505;50.882;5.350;2023-05-23T13:52:12;21.95;;;3.67;;
18752;SDS011;9505;50.882;5.350;2023-05-23T13:54:38;22.52;;;3.67;;
18752;SDS011;9505;50.882;5.350;2023-05-23T13:57:05;28.95;;;4.53;;
18752;SDS011;9505;50.882;5.350;2023-05-23T13:59:31;31.92;;;4.35;;
18752;SDS011;9505;50.882;5.350;2023-05-23T14:01:57;42.13;;;5.20;;
18752;SDS011;9505;50.882;5.350;2023-05-23T14:04:23;30.58;;;4.28;;
18752;SDS011;9505;50.882;5.350;2023-05-23T14:06:49;35.45;;;5.35;;
18752;SDS011;9505;50.882;5.350;2023-05-23T14:09:15;38.92;;;5.20;;
18752;SDS011;9505;50.882;5.350;2023-05-23T14:11:41;30.95;;;4.18;;
18752;SDS011;9505;50.882;5.350;2023-05-23T14:14:07;24.70;;;4.53;;
18752;SDS011;9505;50.882;5.350;2023-05-23T14:16:33;33.15;;;4.88;;
18752;SDS011;9505;50.882;5.350;2023-05-23T14:18:59;26.15;;;3.85;;
18752;SDS011;9505;50.882;5.350;2023-05-23T14:21:24;26.92;;;4.22;;
18752;SDS011;9505;50.882;5.350;2023-05-23T14:23:50;32.85;;;4.97;;
18752;SDS011;9505;50.882;5.350;2023-05-23T14:26:16;39.75;;;5.13;;
18752;SDS011;9505;50.882;5.350;2023-05-23T14:28:41;38.80;;;5.70;;
18752;SDS011;9505;50.882;5.350;2023-05-23T14:31:07;43.80;;;5.85;;
18752;SDS011;9505;50.882;5.350;2023-05-23T14:33:33;36.38;;;4.57;;
18752;SDS011;9505;50.882;5.350;2023-05-23T14:35:59;31.00;;;4.63;;
18752;SDS011;9505;50.882;5.350;2023-05-23T14:38:25;26.15;;;3.78;;
18752;SDS011;9505;50.882;5.350;2023-05-23T14:40:51;28.85;;;4.25;;
18752;SDS011;9505;50.882;5.350;2023-05-23T14:43:18;29.25;;;4.72;;
18752;SDS011;9505;50.882;5.350;2023-05-23T14:45:44;27.40;;;3.63;;
18752;SDS011;9505;50.882;5.350;2023-05-23T14:48:10;24.70;;;3.80;;
18752;SDS011;9505;50.882;5.350;2023-05-23T14:50:36;28.35;;;3.58;;
18752;SDS011;9505;50.882;5.350;2023-05-23T14:53:02;22.33;;;3.25;;
18752;SDS011;9505;50.882;5.350;2023-05-23T14:55:28;24.63;;;3.60;;
18752;SDS011;9505;50.882;5.350;2023-05-23T14:57:54;20.30;;;3.17;;
18752;SDS011;9505;50.882;5.350;2023-05-23T15:00:21;14.25;;;2.88;;
18752;SDS011;9505;50.882;5.350;2023-05-23T15:02:47;14.45;;;2.92;;
18752;SDS011;9505;50.882;5.350;2023-05-23T15:05:12;25.65;;;3.22;;
18752;SDS011;9505;50.882;5.350;2023-05-23T15:07:39;28.33;;;3.88;;
18752;SDS011;9505;50.882;5.350;2023-05-23T15:10:05;30.80;;;3.95;;
18752;SDS011;9505;50.882;5.350;2023-05-23T15:12:32;19.15;;;3.22;;
18752;SDS011;9505;50.882;5.350;2023-05-23T15:14:58;24.00;;;3.70;;
18752;SDS011;9505;50.882;5.350;2023-05-23T15:17:33;20.10;;;2.85;;
18752;SDS011;9505;50.882;5.350;2023-05-23T15:19:59;17.15;;;2.97;;